createdAt,value
2023-02-26T00:01:33.668Z,-1.40
2023-02-26T00:04:03.382Z,-1.40
2023-02-26T00:06:33.998Z,-1.40
2023-02-26T00:09:02.138Z,-1.40
2023-02-26T00:11:30.523Z,-1.40
2023-02-26T00:13:59.016Z,-1.40
2023-02-26T00:16:30.035Z,-1.40
2023-02-26T00:18:59.137Z,-1.50
2023-02-26T00:21:28.490Z,-1.40
2023-02-26T00:23:58.543Z,-1.50
2023-02-26T00:26:28.217Z,-1.50
2023-02-26T00:28:57.126Z,-1.50
2023-02-26T00:31:25.643Z,-1.50
2023-02-26T00:33:54.592Z,-1.50
2023-02-26T00:36:25.950Z,-1.60
2023-02-26T00:39:05.642Z,-1.60
2023-02-26T00:41:36.096Z,-1.60
2023-02-26T00:44:04.500Z,-1.60
2023-02-26T00:46:42.873Z,-1.60
2023-02-26T00:49:24.108Z,-1.70
2023-02-26T00:51:56.450Z,-1.60
2023-02-26T00:54:27.378Z,-1.70
2023-02-26T00:56:56.445Z,-1.70
2023-02-26T00:59:25.146Z,-1.70
2023-02-26T01:01:54.082Z,-1.70
2023-02-26T01:04:24.558Z,-1.70
2023-02-26T01:06:55.657Z,-1.80
2023-02-26T01:09:28.258Z,-1.80
2023-02-26T01:12:01.400Z,-1.80
2023-02-26T01:14:31.307Z,-1.80
2023-02-26T01:17:07.585Z,-1.80
2023-02-26T01:19:42.657Z,-1.80
2023-02-26T01:22:17.564Z,-1.80
2023-02-26T01:24:49.307Z,-1.70
2023-02-26T01:27:17.488Z,-1.70
2023-02-26T01:29:45.803Z,-1.70
2023-02-26T01:32:17.225Z,-1.70
2023-02-26T01:34:50.009Z,-1.70
2023-02-26T01:37:28.303Z,-1.70
2023-02-26T01:40:17.904Z,-1.70
2023-02-26T01:42:51.815Z,-1.70
2023-02-26T01:45:27.582Z,-1.70
2023-02-26T01:48:01.801Z,-1.70
2023-02-26T01:50:31.989Z,-1.70
2023-02-26T01:53:18.144Z,-1.70
2023-02-26T01:55:50.725Z,-1.70
2023-02-26T01:58:20.128Z,-1.70
2023-02-26T02:00:48.035Z,-1.70
2023-02-26T02:03:16.192Z,-1.70
2023-02-26T02:05:48.182Z,-1.60
2023-02-26T02:08:17.199Z,-1.70
2023-02-26T02:10:51.395Z,-1.70
2023-02-26T02:13:31.497Z,-1.70
2023-02-26T02:16:11.194Z,-1.70
2023-02-26T02:18:44.531Z,-1.70
2023-02-26T02:21:38.489Z,-1.70
2023-02-26T02:24:12.590Z,-1.70
2023-02-26T02:26:54.788Z,-1.70
2023-02-26T02:29:44.042Z,-1.60
2023-02-26T02:32:17.511Z,-1.60
2023-02-26T02:34:49.810Z,-1.60
2023-02-26T02:37:21.920Z,-1.60
2023-02-26T02:39:54.043Z,-1.60
2023-02-26T02:42:28.015Z,-1.60
2023-02-26T02:45:00.483Z,-1.50
2023-02-26T02:47:33.168Z,-1.50
2023-02-26T02:50:06.487Z,-1.50
2023-02-26T02:52:39.829Z,-1.50
2023-02-26T02:55:13.193Z,-1.50
2023-02-26T02:57:45.187Z,-1.50
2023-02-26T03:00:16.723Z,-1.50
2023-02-26T03:02:51.605Z,-1.50
2023-02-26T03:05:19.764Z,-1.50
2023-02-26T03:07:51.224Z,-1.50
2023-02-26T03:10:20.272Z,-1.50
2023-02-26T03:12:48.140Z,-1.50
2023-02-26T03:15:19.708Z,-1.50
2023-02-26T03:17:57.701Z,-1.50
2023-02-26T03:20:30.227Z,-1.50
2023-02-26T03:23:07.019Z,-1.40
2023-02-26T03:25:43.022Z,-1.40
2023-02-26T03:28:18.790Z,-1.40
2023-02-26T03:30:51.655Z,-1.40
2023-02-26T03:33:25.968Z,-1.40
2023-02-26T03:36:09.439Z,-1.40
2023-02-26T03:38:43.046Z,-0.80
2023-02-26T03:41:14.505Z,-1.40
2023-02-26T03:43:46.849Z,-1.40
2023-02-26T03:46:19.546Z,-1.40
2023-02-26T03:48:51.269Z,-1.40
2023-02-26T03:51:20.022Z,-1.40
2023-02-26T03:53:53.013Z,-1.40
2023-02-26T03:56:26.490Z,-1.40
2023-02-26T03:58:54.911Z,-1.40
2023-02-26T04:01:28.076Z,-1.40
2023-02-26T04:04:02.721Z,-1.50
2023-02-26T04:06:31.350Z,-1.50
2023-02-26T04:08:59.244Z,-1.50
2023-02-26T04:11:27.752Z,-1.60
2023-02-26T04:13:55.608Z,-1.60
2023-02-26T04:16:24.183Z,-1.70
2023-02-26T04:18:52.474Z,-1.70
2023-02-26T04:21:23.518Z,-1.70
2023-02-26T04:23:51.527Z,-1.80
2023-02-26T04:26:19.443Z,-1.80
2023-02-26T04:28:47.394Z,-1.90
2023-02-26T04:31:15.555Z,-1.90
2023-02-26T04:33:43.609Z,-2.00
2023-02-26T04:36:11.534Z,-2.00
2023-02-26T04:38:40.804Z,-2.10
2023-02-26T04:41:08.658Z,-2.10
2023-02-26T04:43:37.603Z,-2.10
2023-02-26T04:46:05.692Z,-2.10
2023-02-26T04:48:33.878Z,-2.20
2023-02-26T04:51:01.731Z,-2.80
2023-02-26T04:53:29.733Z,-2.30
2023-02-26T04:55:58.966Z,-2.30
2023-02-26T04:58:26.988Z,-2.30
2023-02-26T05:00:55.640Z,-2.30
2023-02-26T05:03:23.546Z,-2.40
2023-02-26T05:05:51.408Z,-2.40
2023-02-26T05:08:19.354Z,-2.40
2023-02-26T05:10:47.262Z,-2.40
2023-02-26T05:13:16.463Z,-2.40
2023-02-26T05:15:44.565Z,-2.50
2023-02-26T05:18:12.508Z,-2.50
2023-02-26T05:20:41.215Z,-2.50
2023-02-26T05:23:09.073Z,-2.50
2023-02-26T05:25:36.903Z,-2.50
2023-02-26T05:28:05.020Z,-2.60
2023-02-26T05:30:34.526Z,-2.60
2023-02-26T05:33:02.477Z,-2.60
2023-02-26T05:35:30.357Z,-2.60
2023-02-26T05:37:58.252Z,-2.60
2023-02-26T05:40:26.140Z,-2.60
2023-02-26T05:42:54.015Z,-2.60
2023-02-26T05:45:21.901Z,-2.60
2023-02-26T05:47:51.110Z,-2.60
2023-02-26T05:50:19.144Z,-2.60
2023-02-26T05:52:47.120Z,-2.60
2023-02-26T05:55:14.975Z,-2.60
2023-02-26T05:57:42.808Z,-2.60
2023-02-26T06:00:12.574Z,-2.60
2023-02-26T06:02:40.511Z,-2.60
2023-02-26T06:05:11.322Z,-2.70
2023-02-26T06:07:39.243Z,-2.70
2023-02-26T06:10:08.556Z,-2.60
2023-02-26T06:12:36.623Z,-2.70
2023-02-26T06:15:06.265Z,-2.70
2023-02-26T06:17:34.155Z,-2.70
2023-02-26T06:20:02.980Z,-2.70
2023-02-26T06:22:32.486Z,-2.70
2023-02-26T06:25:00.329Z,-2.70
2023-02-26T06:27:28.301Z,-2.70
2023-02-26T06:29:56.177Z,-2.80
2023-02-26T06:32:30.914Z,-2.70
2023-02-26T06:35:00.402Z,-2.80
2023-02-26T06:37:28.768Z,-2.80
2023-02-26T06:39:58.011Z,-2.80
2023-02-26T06:42:25.887Z,-2.70
2023-02-26T06:44:53.707Z,-2.70
2023-02-26T06:47:21.604Z,-2.70
2023-02-26T06:49:49.532Z,-2.70
2023-02-26T06:52:17.380Z,-2.60
2023-02-26T06:54:45.254Z,-2.60
2023-02-26T06:57:14.472Z,-2.60
2023-02-26T06:59:42.367Z,-2.50
2023-02-26T07:02:17.359Z,-2.50
2023-02-26T07:04:45.288Z,-2.40
2023-02-26T07:07:13.797Z,-2.40
2023-02-26T07:09:41.798Z,-2.40
2023-02-26T07:12:09.704Z,-2.30
2023-02-26T07:14:45.842Z,-2.30
2023-02-26T07:17:20.251Z,-2.30
2023-02-26T07:19:48.720Z,-2.30
2023-02-26T07:22:17.152Z,-2.20
2023-02-26T07:24:45.107Z,-2.20
2023-02-26T07:27:13.424Z,-2.10
2023-02-26T07:29:41.284Z,-2.10
2023-02-26T07:32:10.875Z,-2.00
2023-02-26T07:34:38.742Z,-1.90
2023-02-26T07:37:06.599Z,-1.90
2023-02-26T07:39:34.461Z,-1.80
2023-02-26T07:42:02.316Z,-1.70
2023-02-26T07:44:30.168Z,-1.60
2023-02-26T07:46:58.153Z,-1.50
2023-02-26T07:49:27.434Z,-1.50
2023-02-26T07:51:55.537Z,-1.40
2023-02-26T07:54:23.394Z,-1.30
2023-02-26T07:56:51.409Z,-1.30
2023-02-26T07:59:19.288Z,-1.20
2023-02-26T08:01:47.227Z,-1.10
2023-02-26T08:04:15.322Z,-1.00
2023-02-26T08:06:44.643Z,-1.00
2023-02-26T08:09:12.620Z,-0.90
2023-02-26T08:11:43.123Z,-0.80
2023-02-26T08:14:12.089Z,-0.90
2023-02-26T08:16:39.967Z,-0.80
2023-02-26T08:19:08.202Z,-0.80
2023-02-26T08:21:36.106Z,-0.20
2023-02-26T08:24:05.706Z,-0.50
2023-02-26T08:26:36.764Z,-0.40
2023-02-26T08:29:05.817Z,-0.30
2023-02-26T08:31:34.613Z,-0.20
2023-02-26T08:34:03.113Z,-0.10
2023-02-26T08:36:32.294Z,0.10
2023-02-26T08:39:00.400Z,0.20
2023-02-26T08:41:32.221Z,0.40
2023-02-26T08:44:01.270Z,0.50
2023-02-26T08:46:29.747Z,0.50
2023-02-26T08:48:57.819Z,0.60
2023-02-26T08:51:25.994Z,0.70
2023-02-26T08:53:54.082Z,0.70
2023-02-26T08:56:21.928Z,0.70
2023-02-26T08:58:51.157Z,0.90
2023-02-26T09:01:19.026Z,1.00
2023-02-26T09:03:46.902Z,1.10
2023-02-26T09:06:15.498Z,1.10
2023-02-26T09:08:43.354Z,1.20
2023-02-26T09:11:12.435Z,1.20
2023-02-26T09:13:40.905Z,1.40
2023-02-26T09:16:10.999Z,1.20
2023-02-26T09:18:39.626Z,3.10
2023-02-26T09:21:07.562Z,1.80
2023-02-26T09:23:35.429Z,2.80
2023-02-26T09:26:09.078Z,1.80
2023-02-26T09:28:37.806Z,1.90
2023-02-26T09:31:07.116Z,0.80
2023-02-26T09:33:36.973Z,3.40
2023-02-26T09:36:05.342Z,2.10
2023-02-26T09:38:33.269Z,2.10
2023-02-26T09:41:05.414Z,2.10
2023-02-26T09:43:56.736Z,2.10
2023-02-26T09:46:34.758Z,2.10
2023-02-26T09:49:16.451Z,2.30
2023-02-26T09:51:45.216Z,2.50
2023-02-26T09:54:18.541Z,2.60
2023-02-26T09:56:47.943Z,2.70
2023-02-26T09:59:15.891Z,2.70
2023-02-26T10:01:49.745Z,2.80
2023-02-26T10:04:26.786Z,2.80
2023-02-26T10:07:10.518Z,3.00
2023-02-26T10:10:02.351Z,3.10
2023-02-26T10:12:34.990Z,3.10
2023-02-26T10:15:09.534Z,3.10
2023-02-26T10:17:50.278Z,3.10
2023-02-26T10:20:24.820Z,3.20
2023-02-26T10:22:59.229Z,3.20
2023-02-26T10:25:31.899Z,3.10
2023-02-26T10:28:04.671Z,3.20
2023-02-26T10:30:37.280Z,3.30
2023-02-26T10:33:13.841Z,3.00
2023-02-26T10:35:52.060Z,2.90
2023-02-26T10:38:24.501Z,2.80
2023-02-26T10:40:59.331Z,2.70
2023-02-26T10:43:33.037Z,2.70
2023-02-26T10:46:11.658Z,2.70
2023-02-26T10:48:53.608Z,2.90
2023-02-26T10:51:26.839Z,3.10
2023-02-26T10:53:58.481Z,3.40
2023-02-26T10:56:30.172Z,3.60
2023-02-26T10:58:58.492Z,3.70
2023-02-26T11:01:28.809Z,3.60
2023-02-26T11:03:59.853Z,3.30
2023-02-26T11:06:33.227Z,3.20
2023-02-26T11:09:03.374Z,3.10
2023-02-26T11:11:41.856Z,3.30
2023-02-26T11:14:11.327Z,3.10
2023-02-26T11:16:47.066Z,3.00
2023-02-26T11:19:16.838Z,2.90
2023-02-26T11:21:48.582Z,2.90
2023-02-26T11:24:20.833Z,2.90
2023-02-26T11:26:51.193Z,3.00
2023-02-26T11:29:21.654Z,3.00
2023-02-26T11:31:51.599Z,3.90
2023-02-26T11:34:24.678Z,3.00
2023-02-26T11:36:57.951Z,4.30
2023-02-26T11:39:27.665Z,3.30
2023-02-26T11:41:59.775Z,4.00
2023-02-26T11:44:36.626Z,3.30
2023-02-26T11:47:08.301Z,4.90
2023-02-26T11:49:36.340Z,3.30
2023-02-26T11:52:17.693Z,3.30
2023-02-26T11:54:47.458Z,3.30
2023-02-26T11:57:19.092Z,3.50
2023-02-26T11:59:51.073Z,3.80
2023-02-26T12:02:21.668Z,3.90
2023-02-26T12:04:53.258Z,3.90
2023-02-26T12:07:23.516Z,3.90
2023-02-26T12:09:51.606Z,3.80
2023-02-26T12:12:32.939Z,3.70
2023-02-26T12:15:19.085Z,3.60
2023-02-26T12:18:05.463Z,3.70
2023-02-26T12:20:44.241Z,3.60
2023-02-26T12:23:33.792Z,3.50
2023-02-26T12:26:21.696Z,3.30
2023-02-26T12:29:14.167Z,3.30
2023-02-26T12:32:19.876Z,3.40
2023-02-26T12:35:06.304Z,3.40
2023-02-26T12:37:44.564Z,3.50
2023-02-26T12:40:36.077Z,3.60
2023-02-26T12:43:11.335Z,3.70
2023-02-26T12:45:51.404Z,3.80
2023-02-26T12:48:43.949Z,3.90
2023-02-26T12:51:23.618Z,4.00
2023-02-26T12:54:18.189Z,4.80
2023-02-26T12:57:30.586Z,4.10
2023-02-26T13:00:24.034Z,4.10
2023-02-26T13:03:35.692Z,4.00
2023-02-26T13:06:22.979Z,4.00
2023-02-26T13:09:01.309Z,4.10
2023-02-26T13:11:44.537Z,4.20
2023-02-26T13:14:27.983Z,4.10
2023-02-26T13:17:04.102Z,4.20
2023-02-26T13:19:38.937Z,4.30
2023-02-26T13:22:15.912Z,4.30
2023-02-26T13:24:48.492Z,4.20
2023-02-26T13:27:18.207Z,4.70
2023-02-26T13:29:49.570Z,4.10
2023-02-26T13:32:22.257Z,4.10
2023-02-26T13:34:56.147Z,4.10
2023-02-26T13:37:26.990Z,4.10
2023-02-26T13:40:13.388Z,4.20
2023-02-26T13:42:49.222Z,4.10
2023-02-26T13:45:35.132Z,4.60
2023-02-26T13:48:18.004Z,4.70
2023-02-26T13:50:56.720Z,5.10
2023-02-26T13:53:53.918Z,4.10
2023-02-26T13:56:58.862Z,4.10
2023-02-26T13:59:32.880Z,4.10
2023-02-26T14:02:03.698Z,4.10
2023-02-26T14:04:50.288Z,4.00
2023-02-26T14:07:18.272Z,4.00
2023-02-26T14:09:55.441Z,4.10
2023-02-26T14:12:36.167Z,4.10
2023-02-26T14:15:32.606Z,4.00
2023-02-26T14:18:06.793Z,4.00
2023-02-26T14:20:37.354Z,4.10
2023-02-26T14:23:38.216Z,4.10
2023-02-26T14:26:12.765Z,4.10
2023-02-26T14:28:57.127Z,4.10
2023-02-26T14:31:27.685Z,4.10
2023-02-26T14:34:05.031Z,4.10
2023-02-26T14:36:40.818Z,4.10
2023-02-26T14:39:16.907Z,4.10
2023-02-26T14:41:46.003Z,4.10
2023-02-26T14:44:17.503Z,4.10
2023-02-26T14:46:46.409Z,4.20
2023-02-26T14:49:19.775Z,4.30
2023-02-26T14:52:13.208Z,4.30
2023-02-26T14:55:08.065Z,4.30
2023-02-26T14:57:42.620Z,5.40
2023-02-26T15:00:20.068Z,4.20
2023-02-26T15:03:05.840Z,4.50
2023-02-26T15:05:45.727Z,4.00
2023-02-26T15:08:26.615Z,4.00
2023-02-26T15:11:24.244Z,4.10
2023-02-26T15:14:08.106Z,4.10
2023-02-26T15:16:47.254Z,4.10
2023-02-26T15:19:27.011Z,4.20
2023-02-26T15:22:07.592Z,4.20
2023-02-26T15:24:37.081Z,4.20
2023-02-26T15:27:08.295Z,4.10
2023-02-26T15:29:39.024Z,4.00
2023-02-26T15:32:25.673Z,3.90
2023-02-26T15:34:59.756Z,3.90
2023-02-26T15:37:30.150Z,3.90
2023-02-26T15:40:00.106Z,3.90
2023-02-26T15:42:33.657Z,5.10
2023-02-26T15:45:03.317Z,3.90
2023-02-26T15:47:32.097Z,3.90
2023-02-26T15:50:01.220Z,3.80
2023-02-26T15:52:29.825Z,3.80
2023-02-26T15:55:03.019Z,3.70
2023-02-26T15:57:31.916Z,3.70
2023-02-26T16:00:10.376Z,3.70
2023-02-26T16:02:38.280Z,3.60
2023-02-26T16:05:06.863Z,3.60
2023-02-26T16:07:34.780Z,3.50
2023-02-26T16:10:08.486Z,3.90
2023-02-26T16:12:40.435Z,3.40
2023-02-26T16:15:14.254Z,3.40
2023-02-26T16:17:44.788Z,3.30
2023-02-26T16:20:17.292Z,3.20
2023-02-26T16:22:50.174Z,3.20
2023-02-26T16:25:25.231Z,3.10
2023-02-26T16:27:58.402Z,3.10
2023-02-26T16:30:32.362Z,3.00
2023-02-26T16:33:01.061Z,3.00
2023-02-26T16:35:34.743Z,2.90
2023-02-26T16:38:13.473Z,2.80
2023-02-26T16:40:45.344Z,2.70
2023-02-26T16:43:36.838Z,2.70
2023-02-26T16:46:06.531Z,2.60
2023-02-26T16:48:39.602Z,2.50
2023-02-26T16:51:12.067Z,2.50
2023-02-26T16:53:45.111Z,2.40
2023-02-26T16:56:18.188Z,2.40
2023-02-26T16:58:47.902Z,2.30
2023-02-26T17:01:19.015Z,2.20
2023-02-26T17:03:49.355Z,2.20
2023-02-26T17:06:20.288Z,2.20
2023-02-26T17:08:51.008Z,2.10
2023-02-26T17:11:26.419Z,2.10
2023-02-26T17:14:11.079Z,2.00
2023-02-26T17:16:39.106Z,2.00
2023-02-26T17:19:07.217Z,2.00
2023-02-26T17:21:36.525Z,1.90
2023-02-26T17:24:04.632Z,1.90
2023-02-26T17:26:33.896Z,1.80
2023-02-26T17:29:01.765Z,1.80
2023-02-26T17:31:29.875Z,1.70
2023-02-26T17:33:57.860Z,1.70
2023-02-26T17:36:26.654Z,1.70
2023-02-26T17:38:54.504Z,1.60
2023-02-26T17:41:22.563Z,1.60
2023-02-26T17:43:51.785Z,1.60
2023-02-26T17:46:19.620Z,1.50
2023-02-26T17:48:47.631Z,1.50
2023-02-26T17:51:16.512Z,1.50
2023-02-26T17:53:46.562Z,1.50
2023-02-26T17:56:20.524Z,1.40
2023-02-26T17:58:50.268Z,1.40
2023-02-26T18:01:19.940Z,1.40
2023-02-26T18:03:47.904Z,2.70
2023-02-26T18:06:16.606Z,1.40
2023-02-26T18:08:46.632Z,2.00
2023-02-26T18:11:14.650Z,1.40
2023-02-26T18:13:42.952Z,1.50
2023-02-26T18:16:17.876Z,1.50
2023-02-26T18:18:47.426Z,1.50
2023-02-26T18:21:15.301Z,1.50
2023-02-26T18:23:43.171Z,1.50
2023-02-26T18:26:11.668Z,1.60
2023-02-26T18:28:39.771Z,1.60
2023-02-26T18:31:09.194Z,1.60
2023-02-26T18:33:40.469Z,1.60
2023-02-26T18:36:17.327Z,1.50
2023-02-26T18:38:45.192Z,1.50
2023-02-26T18:41:13.056Z,1.50
2023-02-26T18:43:40.939Z,1.40
2023-02-26T18:46:12.904Z,1.40
2023-02-26T18:48:40.728Z,1.30
2023-02-26T18:51:11.238Z,1.30
2023-02-26T18:53:39.068Z,1.30
2023-02-26T18:56:07.837Z,1.30
2023-02-26T18:58:35.691Z,1.30
2023-02-26T19:01:04.702Z,1.20
2023-02-26T19:03:32.710Z,2.60
2023-02-26T19:06:02.558Z,1.20
2023-02-26T19:08:32.115Z,1.20
2023-02-26T19:11:00.368Z,1.90
2023-02-26T19:13:29.108Z,1.20
2023-02-26T19:15:57.016Z,1.20
2023-02-26T19:18:25.133Z,1.20
2023-02-26T19:20:53.050Z,1.20
2023-02-26T19:23:21.115Z,1.10
2023-02-26T19:25:52.082Z,1.00
2023-02-26T19:28:19.988Z,0.90
2023-02-26T19:30:48.077Z,0.90
2023-02-26T19:33:16.162Z,0.80
2023-02-26T19:35:44.312Z,0.70
2023-02-26T19:38:12.428Z,0.70
2023-02-26T19:40:40.281Z,0.60
2023-02-26T19:43:09.559Z,0.60
2023-02-26T19:45:52.362Z,0.60
2023-02-26T19:48:21.130Z,0.50
2023-02-26T19:50:51.213Z,0.50
2023-02-26T19:53:19.283Z,0.40
2023-02-26T19:55:47.169Z,0.30
2023-02-26T19:58:16.395Z,0.30
2023-02-26T20:00:44.295Z,0.20
2023-02-26T20:03:12.162Z,0.10
2023-02-26T20:05:40.066Z,0.10
2023-02-26T20:08:08.038Z,0.00
2023-02-26T20:10:35.916Z,-0.10
2023-02-26T20:13:03.808Z,-0.10
2023-02-26T20:15:34.290Z,-0.10
2023-02-26T20:18:02.294Z,-0.10
2023-02-26T20:20:30.255Z,-0.20
2023-02-26T20:22:58.192Z,-0.20
2023-02-26T20:25:26.068Z,-0.30
2023-02-26T20:27:53.963Z,-0.40
2023-02-26T20:30:22.330Z,-0.40
2023-02-26T20:32:51.633Z,0.70
2023-02-26T20:35:19.690Z,-0.50
2023-02-26T20:37:47.596Z,-0.50
2023-02-26T20:40:15.569Z,-0.50
2023-02-26T20:42:43.436Z,-0.60
2023-02-26T20:45:12.806Z,-0.60
2023-02-26T20:47:40.699Z,-0.70
2023-02-26T20:50:11.575Z,-0.70
2023-02-26T20:52:39.438Z,-0.80
2023-02-26T20:55:08.351Z,-0.80
2023-02-26T20:57:36.354Z,-0.90
2023-02-26T21:00:11.000Z,-0.90
2023-02-26T21:02:39.207Z,-0.90
2023-02-26T21:05:10.114Z,-1.00
2023-02-26T21:07:39.197Z,-1.00
2023-02-26T21:10:08.178Z,-1.10
2023-02-26T21:12:36.211Z,-1.10
2023-02-26T21:15:04.297Z,-1.20
2023-02-26T21:17:32.818Z,-1.30
2023-02-26T21:20:00.701Z,-3.00
2023-02-26T21:22:29.927Z,-1.40
2023-02-26T21:24:57.820Z,-1.40
2023-02-26T21:27:25.720Z,-1.40
2023-02-26T21:29:53.922Z,-1.40
2023-02-26T21:32:21.812Z,-1.30
2023-02-26T21:34:49.688Z,-1.30
2023-02-26T21:37:17.583Z,-1.30
2023-02-26T21:39:48.072Z,-1.30
2023-02-26T21:42:15.940Z,-1.30
2023-02-26T21:44:43.871Z,-1.20
2023-02-26T21:47:12.149Z,-1.20
2023-02-26T21:49:40.913Z,-1.20
2023-02-26T21:52:09.071Z,-1.20
2023-02-26T21:54:36.947Z,-1.20
2023-02-26T21:57:07.156Z,-1.20
2023-02-26T21:59:35.456Z,-1.30
2023-02-26T22:02:04.439Z,-1.30
2023-02-26T22:04:33.643Z,-1.30
2023-02-26T22:07:01.520Z,-1.40
2023-02-26T22:09:29.462Z,-1.40
2023-02-26T22:11:57.350Z,-1.50
2023-02-26T22:14:26.763Z,-1.50
2023-02-26T22:16:54.721Z,-1.60
2023-02-26T22:19:28.153Z,-1.70
2023-02-26T22:21:56.106Z,-1.80
2023-02-26T22:24:24.132Z,-2.00
2023-02-26T22:26:52.060Z,-1.90
2023-02-26T22:29:20.315Z,-2.00
2023-02-26T22:31:49.661Z,-2.00
2023-02-26T22:34:17.677Z,-2.20
2023-02-26T22:36:45.574Z,-2.10
2023-02-26T22:39:13.741Z,-2.20
2023-02-26T22:41:41.648Z,-2.20
2023-02-26T22:44:09.555Z,-2.40
2023-02-26T22:46:37.623Z,-2.50
2023-02-26T22:49:07.090Z,-2.50
2023-02-26T22:51:34.940Z,-2.60
2023-02-26T22:54:03.146Z,-2.60
2023-02-26T22:56:31.287Z,-2.50
2023-02-26T22:58:59.175Z,-2.60
2023-02-26T23:01:29.663Z,-2.70
2023-02-26T23:03:58.952Z,-2.70
2023-02-26T23:06:28.424Z,-2.90
2023-02-26T23:08:56.283Z,-2.90
2023-02-26T23:11:24.255Z,-2.90
2023-02-26T23:13:52.309Z,-2.90
2023-02-26T23:16:20.235Z,-2.90
2023-02-26T23:18:48.188Z,-3.00
2023-02-26T23:21:16.747Z,-3.00
2023-02-26T23:23:46.005Z,-3.10
2023-02-26T23:26:14.148Z,-3.00
2023-02-26T23:28:42.033Z,-3.10
2023-02-26T23:31:09.957Z,-3.20
2023-02-26T23:33:37.968Z,-3.10
2023-02-26T23:36:06.538Z,-3.20
2023-02-26T23:38:34.499Z,-3.10
2023-02-26T23:41:03.770Z,-3.10
2023-02-26T23:43:31.664Z,-3.20
2023-02-26T23:45:59.633Z,-3.00
2023-02-26T23:48:27.838Z,-3.20
2023-02-26T23:50:56.387Z,-3.00
2023-02-26T23:53:24.693Z,-3.10
2023-02-26T23:55:57.121Z,-3.10
2023-02-26T23:58:27.182Z,-3.10
